createdAt,value
2023-01-22T00:01:30.076Z,94969.69
2023-01-22T00:03:56.352Z,94983.88
2023-01-22T00:06:22.661Z,94975.91
2023-01-22T00:08:48.928Z,94983.44
2023-01-22T00:11:15.197Z,94984.69
2023-01-22T00:13:41.492Z,94976.75
2023-01-22T00:16:07.806Z,94980.03
2023-01-22T00:18:34.157Z,94975.81
2023-01-22T00:21:00.424Z,94974.34
2023-01-22T00:23:26.678Z,94972.41
2023-01-22T00:25:52.935Z,94988.81
2023-01-22T00:28:19.185Z,94982.63
2023-01-22T00:30:45.431Z,94991.53
2023-01-22T00:33:11.675Z,94984.00
2023-01-22T00:35:37.915Z,94977.03
2023-01-22T00:38:04.183Z,94975.41
2023-01-22T00:40:30.442Z,94976.84
2023-01-22T00:42:56.771Z,94978.91
2023-01-22T00:45:23.032Z,94973.34
2023-01-22T00:47:49.288Z,94976.22
2023-01-22T00:50:15.865Z,94978.91
2023-01-22T00:52:42.288Z,94974.25
2023-01-22T00:55:08.601Z,94973.03
2023-01-22T00:57:34.847Z,94976.75
2023-01-22T01:00:01.112Z,94973.03
2023-01-22T01:02:27.373Z,94973.44
2023-01-22T01:04:53.632Z,94978.31
2023-01-22T01:07:19.892Z,94977.03
2023-01-22T01:09:46.155Z,94981.00
2023-01-22T01:12:12.416Z,94976.22
2023-01-22T01:14:38.671Z,94975.59
2023-01-22T01:17:04.922Z,94994.41
2023-01-22T01:19:31.169Z,94982.53
2023-01-22T01:21:57.451Z,94987.41
2023-01-22T01:24:23.720Z,94993.91
2023-01-22T01:26:49.980Z,94979.94
2023-01-22T01:29:16.231Z,94993.28
2023-01-22T01:31:42.533Z,94979.00
2023-01-22T01:34:09.088Z,94968.47
2023-01-22T01:36:48.271Z,94979.84
2023-01-22T01:39:15.591Z,94971.38
2023-01-22T01:41:41.849Z,94983.47
2023-01-22T01:44:08.123Z,94979.63
2023-01-22T01:46:34.444Z,94972.19
2023-01-22T01:49:00.842Z,94977.47
2023-01-22T01:51:27.131Z,94977.69
2023-01-22T01:53:53.444Z,94987.81
2023-01-22T01:56:19.714Z,94982.22
2023-01-22T01:58:45.983Z,94995.25
2023-01-22T02:01:12.295Z,94996.69
2023-01-22T02:03:38.591Z,94990.09
2023-01-22T02:06:04.842Z,94984.59
2023-01-22T02:08:31.088Z,94993.41
2023-01-22T02:10:57.328Z,94990.28
2023-01-22T02:13:23.592Z,94991.63
2023-01-22T02:15:49.832Z,94997.22
2023-01-22T02:18:16.149Z,94996.91
2023-01-22T02:20:42.446Z,95000.31
2023-01-22T02:23:08.768Z,95000.09
2023-01-22T02:25:35.046Z,94998.47
2023-01-22T02:28:01.309Z,95005.06
2023-01-22T02:30:27.587Z,95007.53
2023-01-22T02:32:53.856Z,95009.72
2023-01-22T02:35:20.118Z,95008.16
2023-01-22T02:37:46.365Z,95006.00
2023-01-22T02:40:12.628Z,95005.09
2023-01-22T02:42:38.936Z,94998.03
2023-01-22T02:45:05.244Z,95008.19
2023-01-22T02:47:31.502Z,95015.09
2023-01-22T02:49:57.746Z,95005.47
2023-01-22T02:52:24.031Z,94996.19
2023-01-22T02:54:50.287Z,94988.72
2023-01-22T02:57:16.527Z,94989.56
2023-01-22T02:59:42.802Z,94993.69
2023-01-22T03:02:09.060Z,95002.47
2023-01-22T03:04:35.322Z,94993.16
2023-01-22T03:07:01.595Z,94978.16
2023-01-22T03:09:27.896Z,94989.63
2023-01-22T03:11:54.147Z,94987.78
2023-01-22T03:14:20.408Z,94988.72
2023-01-22T03:16:46.786Z,94982.00
2023-01-22T03:19:13.137Z,94980.66
2023-01-22T03:21:39.408Z,94979.63
2023-01-22T03:24:05.680Z,94983.75
2023-01-22T03:26:31.924Z,94979.84
2023-01-22T03:28:58.172Z,94975.06
2023-01-22T03:31:24.567Z,94978.28
2023-01-22T03:33:50.862Z,94971.97
2023-01-22T03:36:17.110Z,94972.91
2023-01-22T03:38:43.353Z,94963.09
2023-01-22T03:41:09.634Z,94970.84
2023-01-22T03:43:35.907Z,94975.56
2023-01-22T03:46:02.234Z,94971.56
2023-01-22T03:48:28.526Z,94979.91
2023-01-22T03:50:54.827Z,94983.84
2023-01-22T03:53:21.114Z,94982.44
2023-01-22T03:55:47.391Z,94991.63
2023-01-22T03:58:13.726Z,94983.25
2023-01-22T04:00:39.969Z,94988.81
2023-01-22T04:03:06.268Z,94979.63
2023-01-22T04:05:32.537Z,94988.19
2023-01-22T04:07:58.797Z,94986.56
2023-01-22T04:10:25.093Z,94988.91
2023-01-22T04:12:51.348Z,94990.34
2023-01-22T04:15:17.596Z,94981.16
2023-01-22T04:17:43.859Z,94983.44
2023-01-22T04:20:10.115Z,94995.22
2023-01-22T04:22:36.388Z,94992.75
2023-01-22T04:25:02.635Z,94993.25
2023-01-22T04:27:28.971Z,94993.25
2023-01-22T04:29:55.245Z,94989.31
2023-01-22T04:32:21.500Z,94991.50
2023-01-22T04:34:47.806Z,94998.13
2023-01-22T04:37:14.072Z,94997.69
2023-01-22T04:39:40.345Z,95004.72
2023-01-22T04:42:06.620Z,95004.13
2023-01-22T04:44:32.887Z,95010.13
2023-01-22T04:46:59.140Z,94994.63
2023-01-22T04:49:25.397Z,95000.84
2023-01-22T04:51:51.673Z,95005.25
2023-01-22T04:54:17.948Z,95007.72
2023-01-22T04:56:44.213Z,95015.72
2023-01-22T04:59:10.638Z,95015.78
2023-01-22T05:01:36.964Z,95011.78
2023-01-22T05:04:03.237Z,95013.44
2023-01-22T05:06:29.488Z,95009.72
2023-01-22T05:08:55.831Z,95018.59
2023-01-22T05:11:22.097Z,95018.19
2023-01-22T05:13:48.379Z,95022.13
2023-01-22T05:16:14.667Z,95026.44
2023-01-22T05:18:40.940Z,95027.06
2023-01-22T05:21:07.197Z,95021.28
2023-01-22T05:23:33.451Z,95025.31
2023-01-22T05:25:59.702Z,95025.19
2023-01-22T05:28:25.970Z,95020.13
2023-01-22T05:30:52.331Z,95025.19
2023-01-22T05:33:18.618Z,95028.72
2023-01-22T05:35:44.860Z,95027.38
2023-01-22T05:38:11.118Z,95026.44
2023-01-22T05:40:37.370Z,95028.09
2023-01-22T05:43:03.616Z,95026.44
2023-01-22T05:45:29.872Z,95032.78
2023-01-22T05:47:56.124Z,95023.38
2023-01-22T05:50:22.424Z,95029.44
2023-01-22T05:52:48.672Z,95033.59
2023-01-22T05:55:14.936Z,95040.00
2023-01-22T05:57:41.195Z,95040.13
2023-01-22T06:00:07.462Z,95044.47
2023-01-22T06:02:33.744Z,95045.09
2023-01-22T06:05:00.109Z,95042.94
2023-01-22T06:07:26.438Z,95049.84
2023-01-22T06:09:52.683Z,95043.34
2023-01-22T06:12:18.944Z,95035.34
2023-01-22T06:14:45.213Z,95034.63
2023-01-22T06:17:11.452Z,95048.78
2023-01-22T06:19:37.734Z,95043.50
2023-01-22T06:22:03.996Z,95042.78
2023-01-22T06:24:30.274Z,95043.72
2023-01-22T06:26:56.533Z,95045.78
2023-01-22T06:29:22.842Z,95049.31
2023-01-22T06:31:49.136Z,95045.72
2023-01-22T06:34:15.451Z,95039.19
2023-01-22T06:36:43.577Z,95051.28
2023-01-22T06:39:09.958Z,95048.91
2023-01-22T06:41:36.223Z,95045.19
2023-01-22T06:44:02.483Z,95057.41
2023-01-22T06:46:28.770Z,95046.31
2023-01-22T06:48:55.061Z,95053.56
2023-01-22T06:51:21.378Z,95054.72
2023-01-22T06:53:47.728Z,95060.81
2023-01-22T06:56:13.964Z,95058.00
2023-01-22T06:58:40.223Z,95063.81
2023-01-22T07:01:06.509Z,95057.78
2023-01-22T07:03:32.816Z,95067.22
2023-01-22T07:05:59.095Z,95075.59
2023-01-22T07:08:25.352Z,95083.59
2023-01-22T07:10:51.617Z,95082.53
2023-01-22T07:13:17.896Z,95083.34
2023-01-22T07:15:44.161Z,95082.75
2023-01-22T07:18:10.432Z,95087.09
2023-01-22T07:20:36.762Z,95091.22
2023-01-22T07:23:03.020Z,95086.56
2023-01-22T07:25:29.293Z,95093.50
2023-01-22T07:27:55.571Z,95096.59
2023-01-22T07:30:21.831Z,95101.78
2023-01-22T07:32:48.091Z,95098.88
2023-01-22T07:35:14.357Z,95097.34
2023-01-22T07:37:40.620Z,95097.53
2023-01-22T07:40:06.887Z,95100.94
2023-01-22T07:42:33.135Z,95107.47
2023-01-22T07:44:59.380Z,95104.03
2023-01-22T07:47:25.655Z,95110.38
2023-01-22T07:49:51.996Z,95112.53
2023-01-22T07:52:18.278Z,95111.72
2023-01-22T07:54:44.551Z,95113.28
2023-01-22T07:57:10.792Z,95110.88
2023-01-22T07:59:37.056Z,95113.78
2023-01-22T08:02:03.820Z,95121.88
2023-01-22T08:04:30.130Z,95116.34
2023-01-22T08:06:56.385Z,95129.00
2023-01-22T08:09:22.649Z,95117.72
2023-01-22T08:11:48.907Z,95115.22
2023-01-22T08:14:15.281Z,95118.53
2023-01-22T08:16:41.578Z,95122.78
2023-01-22T08:19:07.859Z,95122.16
2023-01-22T08:21:34.104Z,95126.09
2023-01-22T08:24:00.413Z,95125.06
2023-01-22T08:26:26.692Z,95119.34
2023-01-22T08:28:52.941Z,95130.44
2023-01-22T08:31:27.391Z,95125.78
2023-01-22T08:33:54.396Z,95125.34
2023-01-22T08:36:20.665Z,95128.38
2023-01-22T08:38:46.908Z,95134.81
2023-01-22T08:41:13.159Z,95128.59
2023-01-22T08:43:39.411Z,95127.84
2023-01-22T08:46:05.757Z,95130.25
2023-01-22T08:48:32.040Z,95131.56
2023-01-22T08:50:58.323Z,95124.34
2023-01-22T08:53:24.581Z,95122.88
2023-01-22T08:55:50.849Z,95134.28
2023-01-22T08:58:17.109Z,95127.75
2023-01-22T09:00:43.408Z,95132.09
2023-01-22T09:03:09.704Z,95128.28
2023-01-22T09:05:36.028Z,95135.81
2023-01-22T09:08:02.293Z,95136.25
2023-01-22T09:10:28.589Z,95125.56
2023-01-22T09:12:54.846Z,95138.59
2023-01-22T09:15:21.089Z,95145.56
2023-01-22T09:17:47.368Z,95148.13
2023-01-22T09:20:13.629Z,95148.84
2023-01-22T09:22:39.883Z,95145.00
2023-01-22T09:25:06.153Z,95152.47
2023-01-22T09:27:32.415Z,95147.06
2023-01-22T09:29:58.658Z,95168.72
2023-01-22T09:32:24.924Z,95153.91
2023-01-22T09:34:51.179Z,95155.94
2023-01-22T09:37:17.428Z,95162.50
2023-01-22T09:39:43.674Z,95150.38
2023-01-22T09:42:09.948Z,95160.75
2023-01-22T09:44:36.212Z,95158.56
2023-01-22T09:47:02.483Z,95168.00
2023-01-22T09:49:28.812Z,95160.22
2023-01-22T09:51:55.080Z,95171.47
2023-01-22T09:54:21.360Z,95163.94
2023-01-22T09:56:47.623Z,95173.16
2023-01-22T09:59:13.885Z,95167.66
2023-01-22T10:01:40.158Z,95160.28
2023-01-22T10:04:06.424Z,95166.94
2023-01-22T10:06:32.712Z,95168.00
2023-01-22T10:08:58.988Z,95169.84
2023-01-22T10:11:25.241Z,95166.13
2023-01-22T10:13:51.574Z,95167.84
2023-01-22T10:16:17.884Z,95171.16
2023-01-22T10:18:44.179Z,95166.69
2023-01-22T10:21:10.431Z,95165.75
2023-01-22T10:23:36.678Z,95177.00
2023-01-22T10:26:02.955Z,95180.44
2023-01-22T10:28:29.200Z,95174.06
2023-01-22T10:30:55.582Z,95175.75
2023-01-22T10:33:21.973Z,95175.75
2023-01-22T10:35:48.230Z,95171.22
2023-01-22T10:38:17.070Z,95171.00
2023-01-22T10:40:43.427Z,95171.66
2023-01-22T10:43:09.694Z,95163.47
2023-01-22T10:45:35.963Z,95171.25
2023-01-22T10:48:02.242Z,95169.56
2023-01-22T10:50:28.520Z,95161.28
2023-01-22T10:52:54.851Z,95158.34
2023-01-22T10:55:21.170Z,95147.75
2023-01-22T10:57:47.599Z,95152.03
2023-01-22T11:00:13.903Z,95150.38
2023-01-22T11:02:40.187Z,95156.50
2023-01-22T11:05:06.472Z,95149.13
2023-01-22T11:07:32.982Z,95157.09
2023-01-22T11:09:59.262Z,95149.56
2023-01-22T11:12:25.503Z,95157.31
2023-01-22T11:14:51.762Z,95154.22
2023-01-22T11:17:18.027Z,95155.75
2023-01-22T11:19:46.040Z,95152.31
2023-01-22T11:22:12.463Z,95147.97
2023-01-22T11:24:38.718Z,95158.34
2023-01-22T11:27:05.013Z,95153.38
2023-01-22T11:29:31.288Z,95154.75
2023-01-22T11:31:57.557Z,95144.59
2023-01-22T11:34:23.813Z,95154.72
2023-01-22T11:36:50.083Z,95151.16
2023-01-22T11:39:16.352Z,95148.31
2023-01-22T11:41:42.598Z,95145.50
2023-01-22T11:44:08.855Z,95152.50
2023-01-22T11:46:35.140Z,95146.47
2023-01-22T11:49:01.425Z,95152.03
2023-01-22T11:51:27.721Z,95161.06
2023-01-22T11:53:53.980Z,95148.06
2023-01-22T11:56:20.229Z,95150.97
2023-01-22T11:58:46.553Z,95157.13
2023-01-22T12:01:12.934Z,95158.50
2023-01-22T12:03:39.188Z,95149.81
2023-01-22T12:06:05.456Z,95158.34
2023-01-22T12:08:31.723Z,95158.75
2023-01-22T12:10:57.976Z,95163.25
2023-01-22T12:13:24.245Z,95158.22
2023-01-22T12:15:50.525Z,95167.03
2023-01-22T12:18:16.791Z,95170.56
2023-01-22T12:20:43.051Z,95167.28
2023-01-22T12:23:09.306Z,95167.28
2023-01-22T12:25:35.571Z,95169.25
2023-01-22T12:28:01.828Z,95166.59
2023-01-22T12:30:28.097Z,95167.72
2023-01-22T12:32:54.337Z,95172.66
2023-01-22T12:35:20.592Z,95171.84
2023-01-22T12:37:46.856Z,95176.69
2023-01-22T12:40:13.130Z,95175.78
2023-01-22T12:42:40.465Z,95179.88
2023-01-22T12:45:06.720Z,95171.81
2023-01-22T12:47:32.977Z,95171.94
2023-01-22T12:49:59.240Z,95171.00
2023-01-22T12:52:25.483Z,95166.91
2023-01-22T12:54:51.716Z,95169.28
2023-01-22T12:57:17.974Z,95171.06
2023-01-22T12:59:44.239Z,95168.53
2023-01-22T13:02:10.535Z,95167.53
2023-01-22T13:04:36.787Z,95165.34
2023-01-22T13:07:03.060Z,95157.47
2023-01-22T13:09:29.328Z,95167.63
2023-01-22T13:11:55.775Z,95161.28
2023-01-22T13:14:22.048Z,95159.75
2023-01-22T13:16:48.298Z,95165.75
2023-01-22T13:19:14.540Z,95168.13
2023-01-22T13:21:40.808Z,95163.78
2023-01-22T13:24:07.048Z,95172.66
2023-01-22T13:26:33.292Z,95165.03
2023-01-22T13:28:59.555Z,95168.63
2023-01-22T13:31:25.853Z,95165.28
2023-01-22T13:33:52.129Z,95177.78
2023-01-22T13:36:18.371Z,95176.22
2023-01-22T13:38:44.613Z,95177.25
2023-01-22T13:41:10.876Z,95175.06
2023-01-22T13:43:37.228Z,95173.00
2023-01-22T13:46:03.472Z,95185.97
2023-01-22T13:48:29.720Z,95176.00
2023-01-22T13:50:56.007Z,95178.72
2023-01-22T13:53:22.295Z,95184.94
2023-01-22T13:55:48.825Z,95189.78
2023-01-22T13:58:15.084Z,95191.44
2023-01-22T14:00:41.467Z,95174.41
2023-01-22T14:03:07.735Z,95194.00
2023-01-22T14:05:34.001Z,95189.53
2023-01-22T14:08:00.370Z,95196.84
2023-01-22T14:10:26.611Z,95195.91
2023-01-22T14:12:52.857Z,95200.88
2023-01-22T14:15:19.126Z,95200.97
2023-01-22T14:17:45.421Z,95204.31
2023-01-22T14:20:11.785Z,95210.50
2023-01-22T14:22:38.055Z,95218.47
2023-01-22T14:25:04.316Z,95219.66
2023-01-22T14:27:30.583Z,95223.06
2023-01-22T14:29:56.862Z,95225.97
2023-01-22T14:32:23.119Z,95236.13
2023-01-22T14:34:49.381Z,95231.34
2023-01-22T14:37:15.654Z,95226.59
2023-01-22T14:39:41.919Z,95231.97
2023-01-22T14:42:08.184Z,95228.94
2023-01-22T14:44:34.467Z,95236.31
2023-01-22T14:47:00.788Z,95234.88
2023-01-22T14:49:27.072Z,95243.72
2023-01-22T14:51:53.350Z,95235.50
2023-01-22T14:54:19.620Z,95229.00
2023-01-22T14:56:45.864Z,95224.97
2023-01-22T14:59:12.123Z,95223.91
2023-01-22T15:01:38.369Z,95223.84
2023-01-22T15:04:04.609Z,95224.97
2023-01-22T15:06:30.867Z,95231.91
2023-01-22T15:08:57.118Z,95227.56
2023-01-22T15:11:23.368Z,95238.41
2023-01-22T15:13:49.659Z,95242.97
2023-01-22T15:16:15.908Z,95255.72
2023-01-22T15:18:42.212Z,95241.63
2023-01-22T15:21:08.491Z,95239.25
2023-01-22T15:23:34.762Z,95246.72
2023-01-22T15:26:01.030Z,95242.34
2023-01-22T15:28:27.269Z,95246.50
2023-01-22T15:30:53.608Z,95246.69
2023-01-22T15:33:19.893Z,95245.34
2023-01-22T15:35:46.130Z,95244.41
2023-01-22T15:38:12.370Z,95254.78
2023-01-22T15:40:38.627Z,95244.31
2023-01-22T15:43:04.888Z,95247.00
2023-01-22T15:45:31.195Z,95255.91
2023-01-22T15:47:57.571Z,95251.88
2023-01-22T15:50:23.814Z,95261.63
2023-01-22T15:52:50.045Z,95257.06
2023-01-22T15:55:16.315Z,95257.25
2023-01-22T15:57:42.565Z,95251.16
2023-01-22T16:00:08.810Z,95250.63
2023-01-22T16:02:35.098Z,95251.59
2023-01-22T16:05:01.361Z,95261.84
2023-01-22T16:07:27.689Z,95266.69
2023-01-22T16:09:53.932Z,95269.28
2023-01-22T16:12:20.216Z,95266.00
2023-01-22T16:14:46.459Z,95274.88
2023-01-22T16:17:12.705Z,95266.00
2023-01-22T16:19:38.969Z,95273.13
2023-01-22T16:22:05.219Z,95272.19
2023-01-22T16:24:31.506Z,95277.25
2023-01-22T16:26:57.760Z,95279.75
2023-01-22T16:29:24.026Z,95284.94
2023-01-22T16:31:50.324Z,95289.91
2023-01-22T16:34:16.626Z,95284.41
2023-01-22T16:36:42.891Z,95284.19
2023-01-22T16:39:09.179Z,95286.69
2023-01-22T16:41:35.435Z,95288.78
2023-01-22T16:44:01.830Z,95291.13
2023-01-22T16:46:28.246Z,95293.69
2023-01-22T16:48:54.535Z,95290.94
2023-01-22T16:51:21.143Z,95288.56
2023-01-22T16:53:48.287Z,95297.97
2023-01-22T16:56:14.541Z,95302.03
2023-01-22T16:58:40.809Z,95299.31
2023-01-22T17:01:07.156Z,95305.13
2023-01-22T17:03:33.419Z,95315.59
2023-01-22T17:05:59.704Z,95303.91
2023-01-22T17:08:25.978Z,95301.41
2023-01-22T17:10:52.252Z,95298.09
2023-01-22T17:13:18.524Z,95309.06
2023-01-22T17:15:44.810Z,95308.97
2023-01-22T17:18:11.106Z,95304.50
2023-01-22T17:20:37.340Z,95302.25
2023-01-22T17:23:03.593Z,95315.09
2023-01-22T17:25:29.863Z,95306.78
2023-01-22T17:27:56.114Z,95321.41
2023-01-22T17:30:22.365Z,95322.13
2023-01-22T17:32:48.690Z,95322.75
2023-01-22T17:35:14.964Z,95319.44
2023-01-22T17:37:41.273Z,95319.75
2023-01-22T17:40:07.572Z,95322.63
2023-01-22T17:42:33.860Z,95320.38
2023-01-22T17:45:00.141Z,95323.34
2023-01-22T17:47:26.408Z,95323.97
2023-01-22T17:49:52.673Z,95324.50
2023-01-22T17:52:18.934Z,95325.72
2023-01-22T17:54:45.203Z,95328.13
2023-01-22T17:57:11.473Z,95334.16
2023-01-22T17:59:37.756Z,95332.66
2023-01-22T18:02:04.049Z,95337.34
2023-01-22T18:04:30.309Z,95331.66
2023-01-22T18:06:56.560Z,95337.66
2023-01-22T18:09:22.810Z,95346.69
2023-01-22T18:11:49.089Z,95344.41
2023-01-22T18:14:15.346Z,95346.59
2023-01-22T18:16:41.605Z,95356.63
2023-01-22T18:19:07.877Z,95341.84
2023-01-22T18:21:34.165Z,95354.53
2023-01-22T18:24:00.443Z,95357.66
2023-01-22T18:26:26.693Z,95362.94
2023-01-22T18:28:52.962Z,95360.19
2023-01-22T18:31:19.386Z,95351.88
2023-01-22T18:33:45.668Z,95355.19
2023-01-22T18:36:11.912Z,95358.09
2023-01-22T18:38:38.162Z,95354.56
2023-01-22T18:41:04.420Z,95358.00
2023-01-22T18:43:30.696Z,95359.13
2023-01-22T18:45:56.959Z,95357.06
2023-01-22T18:48:23.199Z,95359.84
2023-01-22T18:50:49.455Z,95357.69
2023-01-22T18:53:15.909Z,95360.69
2023-01-22T18:55:42.233Z,95350.50
2023-01-22T18:58:08.528Z,95355.28
2023-01-22T19:00:34.806Z,95358.38
2023-01-22T19:03:01.117Z,95358.81
2023-01-22T19:05:27.417Z,95363.06
2023-01-22T19:07:53.692Z,95364.22
2023-01-22T19:10:19.961Z,95362.03
2023-01-22T19:12:46.209Z,95364.41
2023-01-22T19:15:12.473Z,95360.88
2023-01-22T19:17:38.730Z,95359.44
2023-01-22T19:20:04.984Z,95364.41
2023-01-22T19:22:31.229Z,95374.25
2023-01-22T19:24:57.500Z,95367.75
2023-01-22T19:27:23.765Z,95369.28
2023-01-22T19:29:50.014Z,95372.28
2023-01-22T19:32:16.270Z,95374.69
2023-01-22T19:34:42.542Z,95368.75
2023-01-22T19:37:08.795Z,95378.28
2023-01-22T19:39:35.040Z,95376.34
2023-01-22T19:42:01.324Z,95376.63
2023-01-22T19:44:27.568Z,95382.66
2023-01-22T19:46:53.869Z,95385.16
2023-01-22T19:49:20.182Z,95389.38
2023-01-22T19:51:46.449Z,95386.06
2023-01-22T19:54:12.716Z,95389.56
2023-01-22T19:56:38.992Z,95397.00
2023-01-22T19:59:05.261Z,95399.81
2023-01-22T20:01:31.552Z,95389.25
2023-01-22T20:03:57.786Z,95395.69
2023-01-22T20:06:24.064Z,95397.47
2023-01-22T20:08:50.325Z,95400.03
2023-01-22T20:11:16.570Z,95390.59
2023-01-22T20:13:42.840Z,95393.72
2023-01-22T20:16:09.095Z,95403.34
2023-01-22T20:18:35.373Z,95400.22
2023-01-22T20:21:01.630Z,95397.28
2023-01-22T20:23:27.893Z,95392.94
2023-01-22T20:25:54.127Z,95405.28
2023-01-22T20:28:20.383Z,95396.97
2023-01-22T20:30:46.666Z,95390.47
2023-01-22T20:33:12.932Z,95399.78
2023-01-22T20:35:39.190Z,95403.09
2023-01-22T20:38:05.446Z,95397.41
2023-01-22T20:40:31.728Z,95405.56
2023-01-22T20:42:57.992Z,95407.69
2023-01-22T20:45:24.292Z,95406.72
2023-01-22T20:47:50.548Z,95402.19
2023-01-22T20:50:16.817Z,95411.28
2023-01-22T20:52:43.076Z,95412.84
2023-01-22T20:55:09.354Z,95408.38
2023-01-22T20:57:35.599Z,95414.28
2023-01-22T21:00:01.865Z,95411.28
2023-01-22T21:02:28.165Z,95409.34
2023-01-22T21:04:54.445Z,95414.69
2023-01-22T21:07:20.737Z,95400.38
2023-01-22T21:09:47.017Z,95405.88
2023-01-22T21:12:13.277Z,95402.56
2023-01-22T21:14:39.542Z,95391.50
2023-01-22T21:17:05.799Z,95400.72
2023-01-22T21:19:32.063Z,95396.75
2023-01-22T21:21:58.340Z,95397.78
2023-01-22T21:24:24.621Z,95401.53
2023-01-22T21:26:50.888Z,95396.03
2023-01-22T21:29:17.145Z,95397.28
2023-01-22T21:31:43.422Z,95401.31
2023-01-22T21:34:09.686Z,95396.97
2023-01-22T21:36:35.949Z,95399.16
2023-01-22T21:39:02.213Z,95399.66
2023-01-22T21:41:28.495Z,95391.88
2023-01-22T21:43:54.745Z,95390.41
2023-01-22T21:46:21.014Z,95391.88
2023-01-22T21:48:47.263Z,95394.41
2023-01-22T21:51:13.598Z,95382.31
2023-01-22T21:53:39.860Z,95383.63
2023-01-22T21:56:06.122Z,95388.47
2023-01-22T21:58:32.373Z,95381.09
2023-01-22T22:00:58.652Z,95369.25
2023-01-22T22:03:24.943Z,95386.81
2023-01-22T22:05:51.208Z,95386.31
2023-01-22T22:08:17.467Z,95380.63
2023-01-22T22:10:43.730Z,95391.22
2023-01-22T22:13:09.989Z,95389.38
2023-01-22T22:15:36.247Z,95379.34
2023-01-22T22:18:02.520Z,95381.63
2023-01-22T22:20:28.888Z,95385.56
2023-01-22T22:22:55.146Z,95376.25
2023-01-22T22:25:21.384Z,95380.81
2023-01-22T22:27:47.638Z,95385.88
2023-01-22T22:30:13.897Z,95390.75
2023-01-22T22:32:40.147Z,95384.84
2023-01-22T22:35:06.451Z,95379.06
2023-01-22T22:37:32.724Z,95375.75
2023-01-22T22:39:58.987Z,95379.06
2023-01-22T22:42:25.254Z,95384.25
2023-01-22T22:44:51.500Z,95377.94
2023-01-22T22:47:17.789Z,95378.69
2023-01-22T22:49:44.039Z,95379.16
2023-01-22T22:52:10.287Z,95379.56
2023-01-22T22:54:36.569Z,95380.72
2023-01-22T22:57:02.832Z,95380.50
2023-01-22T22:59:29.084Z,95376.59
2023-01-22T23:01:55.350Z,95377.69
2023-01-22T23:04:21.673Z,95375.56
2023-01-22T23:06:47.987Z,95370.13
2023-01-22T23:09:14.256Z,95376.91
2023-01-22T23:11:40.530Z,95371.47
2023-01-22T23:14:06.793Z,95373.94
2023-01-22T23:16:33.111Z,95377.19
2023-01-22T23:18:59.410Z,95366.09
2023-01-22T23:21:25.691Z,95373.38
2023-01-22T23:23:51.973Z,95370.97
2023-01-22T23:26:18.227Z,95376.34
2023-01-22T23:28:44.483Z,95380.28
2023-01-22T23:31:10.898Z,95375.38
2023-01-22T23:33:37.223Z,95377.97
2023-01-22T23:36:03.491Z,95372.28
2023-01-22T23:38:29.776Z,95377.72
2023-01-22T23:40:56.021Z,95362.34
2023-01-22T23:43:22.279Z,95361.28
2023-01-22T23:45:48.589Z,95361.63
2023-01-22T23:48:14.848Z,95357.47
2023-01-22T23:50:41.108Z,95364.88
2023-01-22T23:53:07.349Z,95352.88
2023-01-22T23:55:33.594Z,95351.41
2023-01-22T23:57:59.867Z,95364.69
